Time;durP1;ratioP1;P1;durP2;ratioP2;P2;SDS_P1;SDS_P2;PMS_P1;PMS_P2;Temp;Humidity;BMP_temperature;BMP_pressure;BME280_temperature;BME280_humidity;BME280_pressure;Samples;Min_cycle;Max_cycle;Signal;HPM_P1;HPM_P2
2022/07/20 00:01:05;;;;;;;5.10;2.38;;;12.00;99.90;;;;;;5054070;28;20204;-77
2022/07/20 00:03:36;;;;;;;4.63;2.15;;;12.00;99.90;;;;;;5053965;28;20649;-79
2022/07/20 00:06:07;;;;;;;9.63;4.00;;;12.00;99.90;;;;;;5053791;28;20201;-80
2022/07/20 00:11:26;;;;;;;5.07;2.42;;;12.10;99.90;;;;;;5053942;28;20204;-80
2022/07/20 00:13:58;;;;;;;4.30;2.10;;;12.30;99.90;;;;;;5053569;28;20724;-78
2022/07/20 00:16:31;;;;;;;4.25;2.10;;;12.50;99.90;;;;;;5053765;28;20190;-78
2022/07/20 00:19:02;;;;;;;6.63;2.00;;;12.70;99.90;;;;;;5053658;28;20189;-79
2022/07/20 00:21:33;;;;;;;3.83;2.20;;;12.70;99.90;;;;;;5053484;28;20276;-78
2022/07/20 00:24:05;;;;;;;2.33;1.85;;;12.80;99.90;;;;;;5053599;28;20559;-79
2022/07/20 00:26:38;;;;;;;1.92;1.60;;;12.90;99.90;;;;;;5053608;28;20193;-74
2022/07/20 00:29:09;;;;;;;2.58;1.70;;;13.00;99.90;;;;;;5053498;28;20642;-78
2022/07/20 00:31:39;;;;;;;3.17;1.98;;;13.10;99.90;;;;;;5053250;28;20194;-79
2022/07/20 00:34:10;;;;;;;5.50;1.77;;;13.20;99.90;;;;;;5048948;28;20237;-73
2022/07/20 00:36:41;;;;;;;3.15;2.00;;;13.30;99.90;;;;;;5053115;28;20236;-74
2022/07/20 00:39:11;;;;;;;3.45;1.70;;;13.50;99.90;;;;;;5053239;28;20189;-78
2022/07/20 00:41:44;;;;;;;2.83;1.77;;;13.60;99.90;;;;;;5053207;28;20661;-79
2022/07/20 00:44:15;;;;;;;2.40;1.70;;;13.60;99.90;;;;;;5053297;28;20241;-78
2022/07/20 00:46:48;;;;;;;3.00;2.22;;;13.70;99.90;;;;;;5053171;28;20201;-80
2022/07/20 00:49:19;;;;;;;3.17;1.50;;;13.70;99.90;;;;;;5053200;28;20208;-78
2022/07/20 00:51:50;;;;;;;2.40;1.20;;;13.60;99.90;;;;;;5055177;28;20197;-79
2022/07/20 00:54:22;;;;;;;1.55;1.30;;;13.60;99.90;;;;;;5052859;28;20664;-79
2022/07/20 00:56:55;;;;;;;2.97;1.27;;;13.60;99.90;;;;;;5043467;28;20197;-79
2022/07/20 00:59:25;;;;;;;1.10;1.00;;;13.50;99.90;;;;;;5050912;28;20198;-78
2022/07/20 01:01:56;;;;;;;3.47;1.05;;;13.50;99.90;;;;;;5052814;28;20189;-78
2022/07/20 01:04:27;;;;;;;3.28;1.45;;;13.40;99.90;;;;;;5052714;28;20189;-77
2022/07/20 01:06:58;;;;;;;2.03;0.80;;;13.40;99.90;;;;;;5052777;28;20194;-79
2022/07/20 01:09:29;;;;;;;1.95;1.15;;;13.30;99.90;;;;;;5051828;28;20192;-78
2022/07/20 01:12:05;;;;;;;2.42;0.80;;;13.30;99.90;;;;;;5052556;28;20198;-76
2022/07/20 01:14:36;;;;;;;2.53;0.77;;;13.20;99.90;;;;;;5052713;28;20575;-82
2022/07/20 01:17:07;;;;;;;3.08;0.95;;;13.10;99.90;;;;;;5052560;28;20208;-81
2022/07/20 01:19:37;;;;;;;0.93;0.90;;;13.10;99.90;;;;;;5051775;28;20551;-78
2022/07/20 01:22:10;;;;;;;1.75;0.93;;;13.00;99.90;;;;;;5052083;28;20641;-74
2022/07/20 01:24:41;;;;;;;2.28;1.00;;;12.90;99.90;;;;;;5051885;28;20226;-74
2022/07/20 01:27:12;;;;;;;2.78;1.10;;;12.90;99.90;;;;;;5052408;28;20770;-76
2022/07/20 01:29:42;;;;;;;3.63;1.40;;;12.80;99.90;;;;;;5042070;28;20194;-80
2022/07/20 01:32:13;;;;;;;2.40;1.20;;;12.80;99.90;;;;;;5051722;28;20582;-81
2022/07/20 01:34:44;;;;;;;1.70;0.85;;;12.90;99.90;;;;;;5051487;28;20233;-83
2022/07/20 01:37:17;;;;;;;2.35;1.00;;;12.90;99.90;;;;;;5049238;28;20589;-82
2022/07/20 01:39:48;;;;;;;2.50;0.90;;;12.90;99.90;;;;;;5052589;28;20185;-81
2022/07/20 01:42:18;;;;;;;4.18;1.20;;;13.00;99.90;;;;;;5052503;28;20645;-72
2022/07/20 01:44:49;;;;;;;2.97;0.95;;;13.00;99.90;;;;;;5052089;28;20201;-73
2022/07/20 01:47:20;;;;;;;2.85;1.23;;;13.00;99.90;;;;;;5052109;28;20194;-72
2022/07/20 01:49:50;;;;;;;1.88;0.90;;;13.10;99.90;;;;;;5052269;28;20197;-72
2022/07/20 01:52:23;;;;;;;1.90;0.90;;;13.30;99.90;;;;;;5052004;28;20196;-72
2022/07/20 01:54:53;;;;;;;3.00;0.90;;;13.40;99.90;;;;;;5051660;28;20583;-71
2022/07/20 01:57:24;;;;;;;2.00;1.05;;;13.60;99.90;;;;;;5051667;28;20190;-72
2022/07/20 01:59:55;;;;;;;5.00;1.20;;;13.70;99.90;;;;;;5051736;28;20213;-74
2022/07/20 02:02:25;;;;;;;3.88;1.10;;;13.80;99.90;;;;;;5051551;28;20190;-71
2022/07/20 02:04:56;;;;;;;4.75;1.10;;;13.70;99.90;;;;;;5051842;28;20193;-71
2022/07/20 02:07:29;;;;;;;2.72;1.10;;;13.70;99.90;;;;;;5051969;28;20194;-73
2022/07/20 02:09:59;;;;;;;1.90;1.10;;;13.70;99.90;;;;;;5052231;28;20192;-75
2022/07/20 02:12:30;;;;;;;2.78;0.77;;;13.80;99.90;;;;;;5051626;28;20645;-71
2022/07/20 02:15:01;;;;;;;1.25;0.73;;;13.80;99.90;;;;;;5051889;28;20688;-72
2022/07/20 02:17:31;;;;;;;1.92;0.73;;;13.90;99.90;;;;;;5051430;28;20182;-74
2022/07/20 02:20:02;;;;;;;0.57;0.57;;;13.90;99.90;;;;;;5052111;28;20185;-79
2022/07/20 02:22:35;;;;;;;2.78;0.60;;;14.00;99.90;;;;;;5053699;28;20217;-77
2022/07/20 02:25:06;;;;;;;1.65;0.90;;;14.20;99.90;;;;;;5055453;28;20198;-81
2022/07/20 02:27:36;;;;;;;1.98;0.50;;;14.20;99.90;;;;;;5055567;28;20553;-80
2022/07/20 02:30:08;;;;;;;1.13;0.60;;;14.30;99.90;;;;;;5055312;28;20190;-78
2022/07/20 02:32:38;;;;;;;3.50;0.93;;;14.40;99.90;;;;;;5054972;28;20190;-81
2022/07/20 02:35:13;;;;;;;1.73;0.90;;;14.40;99.90;;;;;;5054400;28;20245;-75
2022/07/20 02:37:46;;;;;;;1.98;0.60;;;14.40;99.90;;;;;;5049489;28;20193;-74
2022/07/20 02:40:17;;;;;;;0.98;0.55;;;14.30;99.90;;;;;;5055387;28;20200;-78
2022/07/20 02:42:47;;;;;;;0.73;0.40;;;14.20;99.90;;;;;;5055047;28;20197;-76
2022/07/20 02:45:18;;;;;;;1.33;0.52;;;14.10;99.90;;;;;;5055299;28;20193;-78
2022/07/20 02:47:50;;;;;;;0.80;0.50;;;14.10;99.90;;;;;;5055327;28;20196;-77
2022/07/20 02:50:21;;;;;;;1.38;0.70;;;14.10;99.90;;;;;;5055072;28;20202;-77
2022/07/20 02:52:54;;;;;;;0.85;0.40;;;14.10;99.90;;;;;;5055025;28;20197;-78
2022/07/20 02:55:25;;;;;;;2.83;0.80;;;14.00;99.90;;;;;;5054784;28;20221;-74
2022/07/20 02:57:55;;;;;;;1.92;0.70;;;14.00;99.90;;;;;;5055178;28;20194;-76
2022/07/20 03:00:26;;;;;;;2.25;0.50;;;14.00;99.90;;;;;;5054965;28;20201;-74
2022/07/20 03:02:57;;;;;;;0.65;0.57;;;14.00;99.90;;;;;;5054570;28;20200;-74
2022/07/20 03:05:28;;;;;;;0.95;0.60;;;14.00;99.90;;;;;;5054763;28;20194;-72
2022/07/20 03:08:01;;;;;;;1.85;0.50;;;14.10;99.90;;;;;;5054831;28;20193;-74
2022/07/20 03:10:32;;;;;;;1.95;0.60;;;14.10;99.90;;;;;;5054523;28;20565;-75
2022/07/20 03:13:03;;;;;;;1.77;0.50;;;14.20;99.90;;;;;;5054555;28;20197;-75
2022/07/20 03:15:33;;;;;;;1.13;0.68;;;14.30;99.90;;;;;;5034792;28;20283;-74
2022/07/20 03:18:04;;;;;;;1.33;0.80;;;14.40;99.90;;;;;;5042746;28;20197;-78
2022/07/20 03:20:36;;;;;;;3.13;0.70;;;14.40;99.90;;;;;;5054784;28;20186;-72
2022/07/20 03:23:08;;;;;;;1.65;0.57;;;14.40;99.90;;;;;;5054850;28;20240;-72
2022/07/20 03:25:39;;;;;;;1.00;0.80;;;14.40;99.90;;;;;;5054495;28;20197;-72
2022/07/20 03:28:10;;;;;;;1.60;0.70;;;14.50;99.90;;;;;;5054672;28;20200;-72
2022/07/20 03:30:40;;;;;;;1.45;0.52;;;14.50;99.90;;;;;;5054274;28;20208;-76
2022/07/20 03:33:12;;;;;;;1.65;0.63;;;14.50;99.90;;;;;;5052794;28;20197;-72
2022/07/20 03:35:42;;;;;;;1.60;0.75;;;14.60;99.90;;;;;;5047371;28;20248;-74
2022/07/20 03:38:15;;;;;;;1.10;0.60;;;14.60;99.90;;;;;;5054150;28;20194;-72
2022/07/20 03:40:46;;;;;;;5.80;0.73;;;14.60;99.90;;;;;;5054399;28;20205;-73
2022/07/20 03:43:16;;;;;;;1.38;0.60;;;14.50;99.90;;;;;;5053536;28;20186;-73
2022/07/20 03:45:47;;;;;;;2.42;0.65;;;14.40;99.90;;;;;;5054209;28;20190;-72
2022/07/20 03:48:18;;;;;;;1.33;0.65;;;14.40;99.90;;;;;;5053366;28;20185;-79
2022/07/20 03:50:49;;;;;;;1.50;0.47;;;14.50;99.90;;;;;;5053843;28;20198;-78
2022/07/20 03:53:21;;;;;;;3.58;0.50;;;14.50;99.90;;;;;;5053246;28;20190;-73
2022/07/20 03:55:52;;;;;;;1.95;0.70;;;14.60;99.90;;;;;;5053645;28;20680;-73
2022/07/20 03:58:22;;;;;;;2.42;0.50;;;14.80;99.90;;;;;;5053693;28;20194;-74
2022/07/20 04:00:53;;;;;;;2.58;0.60;;;14.90;99.90;;;;;;5053742;28;20186;-79
2022/07/20 04:03:24;;;;;;;1.08;0.50;;;15.20;99.90;;;;;;5053892;28;20691;-72
2022/07/20 04:05:55;;;;;;;3.50;0.40;;;15.30;99.90;;;;;;5053734;28;20609;-76
2022/07/20 04:08:27;;;;;;;3.45;0.45;;;15.40;99.90;;;;;;5053580;28;20182;-76
2022/07/20 04:10:58;;;;;;;1.17;0.50;;;15.20;99.90;;;;;;5053446;28;20208;-77
2022/07/20 04:13:29;;;;;;;3.78;0.77;;;15.00;99.90;;;;;;5052371;28;20209;-78
2022/07/20 04:15:59;;;;;;;1.70;0.60;;;15.00;99.90;;;;;;5053404;28;20217;-73
2022/07/20 04:18:30;;;;;;;6.18;0.77;;;15.00;99.90;;;;;;5053519;28;20186;-75
2022/07/20 04:21:01;;;;;;;1.80;0.60;;;15.10;99.90;;;;;;5053387;28;20224;-77
2022/07/20 04:23:33;;;;;;;2.78;0.45;;;15.10;99.90;;;;;;5053438;28;20641;-77
2022/07/20 04:26:04;;;;;;;0.60;0.30;;;14.90;99.90;;;;;;5045164;28;20204;-73
2022/07/20 04:28:35;;;;;;;1.67;0.40;;;14.60;99.90;;;;;;5049362;28;20202;-77
2022/07/20 04:31:05;;;;;;;2.55;0.55;;;14.40;99.90;;;;;;5053102;28;20185;-76
2022/07/20 04:33:36;;;;;;;2.72;0.40;;;14.30;99.90;;;;;;5052696;28;20213;-77
2022/07/20 04:36:07;;;;;;;2.75;0.57;;;14.20;99.90;;;;;;5052166;28;20602;-76
2022/07/20 04:38:40;;;;;;;1.17;0.38;;;14.10;99.90;;;;;;5053192;28;20194;-76
2022/07/20 04:41:11;;;;;;;0.75;0.40;;;14.10;99.90;;;;;;5050307;28;20190;-77
2022/07/20 04:43:41;;;;;;;0.85;0.50;;;14.10;99.90;;;;;;5049274;28;20194;-76
2022/07/20 04:46:12;;;;;;;1.08;0.40;;;14.10;99.90;;;;;;5051837;28;20671;-77
2022/07/20 04:48:43;;;;;;;0.35;0.30;;;14.10;99.90;;;;;;5053229;28;20193;-77
2022/07/20 04:51:13;;;;;;;2.58;0.90;;;14.10;99.90;;;;;;5053110;28;20532;-77
2022/07/20 04:53:46;;;;;;;1.42;0.40;;;14.20;99.90;;;;;;5053012;28;20189;-76
2022/07/20 04:56:18;;;;;;;1.83;0.50;;;14.20;99.90;;;;;;5052048;28;20293;-76
2022/07/20 04:58:52;;;;;;;1.88;0.50;;;14.20;99.90;;;;;;5052892;28;20200;-78
2022/07/20 05:01:23;;;;;;;4.05;0.38;;;14.20;99.90;;;;;;5052178;28;20189;-77
2022/07/20 05:03:54;;;;;;;3.47;0.40;;;14.20;99.90;;;;;;5052815;28;20185;-78
2022/07/20 05:06:25;;;;;;;1.35;0.40;;;14.20;99.90;;;;;;5051423;28;20185;-78
2022/07/20 05:08:58;;;;;;;1.60;0.40;;;14.30;99.90;;;;;;5049156;28;20189;-77
2022/07/20 05:11:29;;;;;;;3.33;0.90;;;14.20;99.90;;;;;;5052304;28;20192;-76
2022/07/20 05:14:00;;;;;;;1.65;0.47;;;14.20;99.90;;;;;;5052446;28;20217;-78
2022/07/20 05:16:31;;;;;;;1.42;0.70;;;14.20;99.90;;;;;;5052818;28;20193;-77
2022/07/20 05:19:01;;;;;;;1.63;0.50;;;14.20;99.90;;;;;;5052106;28;20564;-76
2022/07/20 05:21:32;;;;;;;0.25;0.20;;;14.10;99.90;;;;;;5051226;28;20185;-76
2022/07/20 05:24:05;;;;;;;1.45;0.73;;;14.00;99.90;;;;;;5052585;28;20241;-76
2022/07/20 05:26:36;;;;;;;1.02;0.38;;;13.90;99.90;;;;;;5052373;28;20193;-77
2022/07/20 05:29:07;;;;;;;1.70;0.40;;;13.80;99.90;;;;;;5052588;28;20194;-77
2022/07/20 05:31:37;;;;;;;0.90;0.40;;;13.70;99.90;;;;;;5052545;28;20196;-77
2022/07/20 05:34:08;;;;;;;2.90;0.57;;;13.60;99.90;;;;;;5051563;28;20225;-77
2022/07/20 05:36:39;;;;;;;1.02;0.50;;;13.50;99.90;;;;;;5052188;28;20229;-77
2022/07/20 05:39:11;;;;;;;2.22;0.60;;;13.40;99.90;;;;;;5052511;28;20200;-76
2022/07/20 05:41:42;;;;;;;2.05;0.88;;;13.40;99.90;;;;;;5052260;28;20606;-78
2022/07/20 05:44:13;;;;;;;1.75;0.80;;;13.40;99.90;;;;;;5052496;28;20190;-75
2022/07/20 05:46:43;;;;;;;1.08;0.52;;;13.40;99.90;;;;;;5052580;28;20204;-78
2022/07/20 05:49:14;;;;;;;3.47;0.60;;;13.40;99.90;;;;;;5052244;28;20535;-77
2022/07/20 05:51:45;;;;;;;1.20;0.77;;;13.40;99.90;;;;;;5052172;28;20220;-77
2022/07/20 05:54:18;;;;;;;2.13;0.80;;;13.50;99.90;;;;;;5051857;28;20672;-77
2022/07/20 05:56:49;;;;;;;2.42;0.70;;;13.50;99.90;;;;;;5054916;28;20201;-76
2022/07/20 05:59:19;;;;;;;2.03;0.70;;;13.50;99.90;;;;;;5056474;28;20186;-74
2022/07/20 06:01:50;;;;;;;1.23;0.40;;;13.50;99.90;;;;;;5056222;28;20198;-72
2022/07/20 06:04:21;;;;;;;1.13;0.60;;;13.50;99.90;;;;;;5056362;28;20194;-73
2022/07/20 06:06:52;;;;;;;0.75;0.60;;;13.40;99.90;;;;;;5055815;28;20197;-73
2022/07/20 06:09:24;;;;;;;1.23;0.80;;;13.30;99.90;;;;;;5056006;28;20567;-72
2022/07/20 06:11:55;;;;;;;1.08;0.52;;;13.30;99.90;;;;;;5055746;28;20185;-73
2022/07/20 06:14:26;;;;;;;0.85;0.60;;;13.20;99.90;;;;;;5055813;28;20189;-73
2022/07/20 06:16:56;;;;;;;1.02;0.50;;;13.20;99.90;;;;;;5056123;28;20200;-73
2022/07/20 06:19:27;;;;;;;2.75;0.60;;;13.10;99.90;;;;;;5055500;28;20186;-77
2022/07/20 06:21:58;;;;;;;0.73;0.47;;;13.10;99.90;;;;;;5055919;28;20194;-78
2022/07/20 06:24:30;;;;;;;3.05;0.80;;;13.10;99.90;;;;;;5055812;28;20194;-79
2022/07/20 06:27:01;;;;;;;1.13;0.60;;;13.10;99.90;;;;;;5055921;28;20637;-77
2022/07/20 06:29:32;;;;;;;1.38;0.70;;;13.10;99.90;;;;;;5055370;28;20193;-78
2022/07/20 06:32:02;;;;;;;1.67;0.95;;;13.10;99.90;;;;;;5055594;28;20202;-73
2022/07/20 06:34:33;;;;;;;1.40;0.90;;;13.10;99.90;;;;;;5054685;28;20692;-77
2022/07/20 06:37:04;;;;;;;0.93;0.80;;;13.00;99.90;;;;;;5055450;28;20293;-78
2022/07/20 06:39:36;;;;;;;1.00;0.80;;;13.00;99.90;;;;;;5054883;28;20205;-78
2022/07/20 06:42:07;;;;;;;1.83;1.00;;;13.00;99.90;;;;;;5055342;28;20193;-77
2022/07/20 06:44:38;;;;;;;2.72;0.90;;;13.00;99.90;;;;;;5055376;28;20206;-78
2022/07/20 06:47:09;;;;;;;1.63;0.90;;;12.90;99.90;;;;;;5055319;28;20212;-77
2022/07/20 06:49:40;;;;;;;1.00;0.90;;;13.00;99.90;;;;;;5054927;28;20182;-78
2022/07/20 06:52:10;;;;;;;1.48;0.90;;;12.90;99.90;;;;;;5054971;28;20189;-78
2022/07/20 06:54:43;;;;;;;2.42;1.00;;;12.90;99.90;;;;;;5055296;28;20212;-78
2022/07/20 06:57:14;;;;;;;1.88;0.90;;;12.90;99.90;;;;;;5055321;28;20206;-76
2022/07/20 06:59:44;;;;;;;3.22;1.10;;;12.90;99.90;;;;;;5055028;28;20215;-77
2022/07/20 07:02:15;;;;;;;3.22;1.10;;;12.90;99.90;;;;;;5055151;28;20189;-78
2022/07/20 07:04:46;;;;;;;1.83;0.90;;;12.90;99.90;;;;;;5053981;28;20193;-78
2022/07/20 07:07:16;;;;;;;1.38;0.90;;;12.90;99.90;;;;;;5053792;28;20196;-78
2022/07/20 07:09:49;;;;;;;1.00;0.90;;;12.80;99.90;;;;;;5054366;28;20204;-78
2022/07/20 07:12:19;;;;;;;1.48;0.90;;;12.80;99.90;;;;;;5054363;28;20561;-78
2022/07/20 07:14:50;;;;;;;2.28;0.90;;;12.80;99.90;;;;;;5052038;28;20193;-77
2022/07/20 07:17:24;;;;;;;3.50;1.08;;;12.80;99.90;;;;;;5054664;28;20198;-79
2022/07/20 07:19:54;;;;;;;1.70;1.00;;;12.70;99.90;;;;;;5054967;28;20963;-77
2022/07/20 07:22:25;;;;;;;1.90;0.90;;;12.70;99.90;;;;;;5054073;28;20193;-77
2022/07/20 07:25:01;;;;;;;1.27;1.00;;;12.70;99.90;;;;;;5054814;28;20202;-76
2022/07/20 07:27:32;;;;;;;3.25;1.05;;;12.70;99.90;;;;;;5054505;28;20197;-77
2022/07/20 07:30:02;;;;;;;2.60;1.40;;;12.80;99.90;;;;;;5054475;28;20894;-77
2022/07/20 07:32:33;;;;;;;3.67;1.50;;;12.80;99.90;;;;;;5054463;28;20638;-77
2022/07/20 07:35:07;;;;;;;2.05;1.40;;;12.80;99.90;;;;;;5053118;28;20243;-77
2022/07/20 07:37:41;;;;;;;2.88;1.50;;;12.80;99.90;;;;;;5054659;28;20216;-78
2022/07/20 07:40:15;;;;;;;2.75;1.40;;;12.70;99.90;;;;;;5054143;28;20198;-77
2022/07/20 07:42:46;;;;;;;3.65;1.60;;;12.70;99.90;;;;;;5054488;28;20550;-77
2022/07/20 07:45:16;;;;;;;3.30;1.60;;;12.80;99.90;;;;;;5054035;28;20205;-74
2022/07/20 07:47:47;;;;;;;2.72;1.40;;;12.80;99.90;;;;;;5051538;28;20208;-78
2022/07/20 07:50:18;;;;;;;2.72;1.80;;;12.80;99.90;;;;;;5053854;28;20185;-78
2022/07/20 07:52:48;;;;;;;1.95;1.50;;;12.80;99.90;;;;;;5054295;28;20197;-76
2022/07/20 07:55:21;;;;;;;3.85;1.70;;;12.80;99.90;;;;;;5053454;28;20216;-78
2022/07/20 07:57:52;;;;;;;2.88;1.85;;;12.70;99.90;;;;;;5054297;28;20224;-79
2022/07/20 08:00:23;;;;;;;4.80;2.03;;;12.80;99.90;;;;;;5053825;28;20193;-78
2022/07/20 08:02:53;;;;;;;4.88;1.90;;;12.80;99.90;;;;;;5054084;28;20198;-78
2022/07/20 08:05:24;;;;;;;2.95;1.58;;;12.80;99.90;;;;;;5053756;28;20216;-77
2022/07/20 08:07:55;;;;;;;3.95;1.90;;;12.80;99.90;;;;;;5053920;28;20200;-78
2022/07/20 08:10:28;;;;;;;4.70;1.70;;;12.80;99.90;;;;;;5034055;28;20248;-77
2022/07/20 08:12:59;;;;;;;4.82;1.85;;;12.70;99.90;;;;;;5043559;28;20189;-78
2022/07/20 08:15:30;;;;;;;3.40;1.48;;;12.70;99.90;;;;;;5053483;28;20262;-79
2022/07/20 08:18:01;;;;;;;2.00;1.33;;;12.70;99.90;;;;;;5053423;28;20652;-77
2022/07/20 08:20:32;;;;;;;4.47;1.65;;;12.70;99.90;;;;;;5053533;28;20236;-77
2022/07/20 08:23:03;;;;;;;2.60;1.13;;;12.70;99.90;;;;;;5053575;28;20209;-74
2022/07/20 08:25:36;;;;;;;5.32;1.17;;;12.60;99.90;;;;;;5053226;28;20668;-79
2022/07/20 08:28:14;;;;;;;2.92;1.33;;;12.50;99.90;;;;;;5053262;28;20186;-80
2022/07/20 08:30:46;;;;;;;5.70;1.40;;;12.50;99.90;;;;;;5053585;28;20239;-79
2022/07/20 08:33:17;;;;;;;2.78;1.30;;;12.50;99.90;;;;;;5052280;28;20221;-79
2022/07/20 08:35:48;;;;;;;1.17;1.02;;;12.40;99.90;;;;;;5052409;28;20245;-78
2022/07/20 08:38:18;;;;;;;2.78;1.25;;;12.40;99.90;;;;;;5053403;28;20204;-79
2022/07/20 08:40:51;;;;;;;3.05;1.48;;;12.40;99.90;;;;;;5053087;28;20198;-80
2022/07/20 08:43:22;;;;;;;3.63;1.50;;;12.40;99.90;;;;;;5053242;28;20243;-79
2022/07/20 08:45:52;;;;;;;2.75;1.40;;;12.40;99.90;;;;;;5053002;28;20190;-79
2022/07/20 08:48:23;;;;;;;5.53;2.10;;;12.40;99.90;;;;;;5043291;28;20186;-75
2022/07/20 08:50:54;;;;;;;5.30;1.80;;;12.40;99.90;;;;;;5053196;28;20196;-73
2022/07/20 08:53:25;;;;;;;5.25;2.00;;;12.40;99.90;;;;;;5052924;28;20220;-73
2022/07/20 08:55:58;;;;;;;2.17;1.58;;;12.50;99.90;;;;;;5053066;28;20223;-73
2022/07/20 08:58:28;;;;;;;3.00;1.60;;;12.40;99.90;;;;;;5053073;28;20645;-74
2022/07/20 09:00:59;;;;;;;3.53;1.85;;;12.40;99.90;;;;;;5052878;28;20190;-79
2022/07/20 09:03:30;;;;;;;3.25;1.80;;;12.40;99.90;;;;;;5052785;28;20280;-77
2022/07/20 09:06:08;;;;;;;3.03;1.60;;;12.40;99.90;;;;;;5052904;28;20262;-72
2022/07/20 09:08:59;;;;;;;3.45;1.77;;;12.40;99.90;;;;;;5052935;28;20548;-72
2022/07/20 09:11:33;;;;;;;2.70;1.60;;;12.30;99.90;;;;;;5052889;28;20190;-72
2022/07/20 09:14:04;;;;;;;2.63;1.60;;;12.30;99.90;;;;;;5054318;28;20647;-80
2022/07/20 09:16:40;;;;;;;3.42;1.60;;;12.30;99.90;;;;;;5058192;28;20209;-80
2022/07/20 09:19:11;;;;;;;1.98;1.40;;;12.20;99.90;;;;;;5052689;28;20615;-80
2022/07/20 09:21:41;;;;;;;4.25;1.70;;;12.20;99.90;;;;;;5052424;28;20194;-78
2022/07/20 09:24:13;;;;;;;2.15;1.58;;;12.10;99.90;;;;;;5050591;28;20201;-78
2022/07/20 09:26:45;;;;;;;3.70;1.60;;;12.20;99.90;;;;;;5052720;28;20659;-79
2022/07/20 09:29:16;;;;;;;2.22;1.63;;;12.10;99.90;;;;;;5051976;28;20194;-80
2022/07/20 09:31:47;;;;;;;7.72;2.28;;;12.10;99.90;;;;;;5051758;28;20198;-80
2022/07/20 09:34:24;;;;;;;7.35;2.58;;;12.10;99.90;;;;;;5051452;28;20298;-77
2022/07/20 09:36:54;;;;;;;4.35;2.47;;;12.20;99.90;;;;;;5051125;28;20233;-79
2022/07/20 09:39:26;;;;;;;6.68;3.40;;;12.20;99.90;;;;;;5050882;28;20204;-78
2022/07/20 09:41:59;;;;;;;7.10;3.40;;;12.20;99.90;;;;;;5052487;28;20193;-79
2022/07/20 09:44:30;;;;;;;6.07;3.45;;;12.20;99.90;;;;;;5052440;28;20201;-79
2022/07/20 09:47:12;;;;;;;6.68;3.20;;;12.20;99.90;;;;;;5051853;28;20243;-76
2022/07/20 09:49:43;;;;;;;5.72;3.30;;;12.20;99.90;;;;;;5052076;28;20560;-74
2022/07/20 09:52:14;;;;;;;8.73;3.63;;;12.20;99.90;;;;;;5052314;28;20223;-72
2022/07/20 09:54:44;;;;;;;5.75;3.78;;;12.20;99.90;;;;;;5052311;28;20185;-72
2022/07/20 09:57:20;;;;;;;6.10;3.30;;;12.20;99.90;;;;;;5052281;28;20224;-72
2022/07/20 09:59:52;;;;;;;6.05;3.13;;;12.10;99.90;;;;;;5047296;28;20194;-72
2022/07/20 10:02:26;;;;;;;5.10;2.97;;;12.20;99.90;;;;;;5052154;28;20538;-72
2022/07/20 10:04:58;;;;;;;4.88;2.78;;;12.20;99.90;;;;;;5052377;28;20185;-72
2022/07/20 10:07:28;;;;;;;4.60;2.65;;;12.20;99.90;;;;;;5051753;28;20205;-72
2022/07/20 10:10:00;;;;;;;6.30;3.05;;;12.20;99.90;;;;;;5052276;28;20201;-75
2022/07/20 10:12:34;;;;;;;5.93;2.75;;;12.10;99.90;;;;;;5050893;28;20182;-72
2022/07/20 10:15:05;;;;;;;7.25;4.20;;;12.10;99.90;;;;;;5052233;28;20212;-73
2022/07/20 10:17:36;;;;;;;4.35;2.88;;;12.10;99.90;;;;;;5052196;28;20629;-79
2022/07/20 10:20:10;;;;;;;8.25;3.50;;;12.10;99.90;;;;;;5052102;28;20194;-78
2022/07/20 10:22:41;;;;;;;5.05;3.35;;;12.10;99.90;;;;;;5052208;28;20573;-80
2022/07/20 10:25:20;;;;;;;6.72;4.10;;;12.10;99.90;;;;;;5051838;28;20192;-79
2022/07/20 10:27:53;;;;;;;11.13;4.82;;;12.00;99.90;;;;;;5051775;28;20200;-79
2022/07/20 10:30:24;;;;;;;6.60;3.83;;;12.00;99.90;;;;;;5051811;28;20209;-78
2022/07/20 10:32:58;;;;;;;8.75;3.50;;;12.00;99.90;;;;;;5051149;28;20189;-80
2022/07/20 10:35:30;;;;;;;7.18;3.40;;;12.00;99.90;;;;;;5051669;28;20225;-79
2022/07/20 10:38:02;;;;;;;7.00;3.13;;;12.00;99.90;;;;;;5051770;28;20217;-79
2022/07/20 10:41:31;;;;;;;5.65;3.10;;;12.00;99.90;;;;;;5051617;28;20192;-77
2022/07/20 10:43:25;;;;;;;4.75;2.88;;;12.00;99.90;;;;;;5053105;28;20255;-78
2022/07/20 10:45:56;;;;;;;4.22;2.70;;;12.00;99.90;;;;;;5055024;28;20686;-78
2022/07/20 10:48:26;;;;;;;5.95;3.10;;;12.00;99.90;;;;;;5055066;28;20197;-79
2022/07/20 10:50:58;;;;;;;7.72;2.95;;;12.00;99.90;;;;;;5055125;28;20219;-79
2022/07/20 10:53:40;;;;;;;4.72;2.83;;;12.00;99.90;;;;;;5054909;28;20217;-79
2022/07/20 10:56:12;;;;;;;7.32;3.10;;;12.10;99.90;;;;;;5055018;28;20599;-78
2022/07/20 10:58:46;;;;;;;5.03;3.22;;;12.00;99.90;;;;;;5054961;28;20197;-79
2022/07/20 11:01:17;;;;;;;6.93;3.17;;;12.10;99.90;;;;;;5053299;28;20194;-78
2022/07/20 11:03:49;;;;;;;4.93;3.38;;;12.10;99.90;;;;;;5054637;28;20198;-79
2022/07/20 11:06:22;;;;;;;4.85;3.08;;;12.00;99.90;;;;;;5054800;28;20186;-77
2022/07/20 11:08:54;;;;;;;4.30;2.92;;;12.00;99.90;;;;;;5054397;28;20212;-79
2022/07/20 11:11:26;;;;;;;7.40;3.20;;;12.00;99.90;;;;;;5054230;28;20197;-79
2022/07/20 11:14:01;;;;;;;4.22;3.15;;;12.00;99.90;;;;;;5054096;28;20189;-79
2022/07/20 11:16:32;;;;;;;4.70;3.05;;;12.00;99.90;;;;;;5054183;28;20288;-79
2022/07/20 11:19:03;;;;;;;4.50;3.30;;;12.00;99.90;;;;;;5054643;28;20201;-79
2022/07/20 11:21:35;;;;;;;4.68;3.22;;;12.00;99.90;;;;;;5053677;28;20193;-78
2022/07/20 11:24:06;;;;;;;7.38;3.47;;;12.00;99.90;;;;;;5054506;28;20194;-78
2022/07/20 11:26:37;;;;;;;5.10;3.30;;;12.00;99.90;;;;;;5053837;28;20664;-79
2022/07/20 11:29:14;;;;;;;3.95;3.20;;;12.00;99.90;;;;;;5054207;28;20200;-77
2022/07/20 11:31:44;;;;;;;5.22;3.45;;;12.00;99.90;;;;;;5053820;28;20197;-77
2022/07/20 11:34:16;;;;;;;3.50;2.97;;;12.00;99.90;;;;;;5053565;28;20229;-79
2022/07/20 11:36:47;;;;;;;4.05;2.80;;;12.00;99.90;;;;;;5051016;28;20244;-77
2022/07/20 11:39:19;;;;;;;3.50;2.80;;;12.00;99.90;;;;;;5054342;28;20196;-75
2022/07/20 11:41:50;;;;;;;5.00;2.90;;;12.00;99.90;;;;;;5054509;28;20198;-74
2022/07/20 11:44:23;;;;;;;4.47;2.78;;;12.00;99.90;;;;;;5053748;28;20604;-72
2022/07/20 11:46:54;;;;;;;3.70;2.88;;;12.00;99.90;;;;;;5054391;28;20232;-72
2022/07/20 11:49:26;;;;;;;4.70;2.90;;;12.00;99.90;;;;;;5054130;28;20586;-74
2022/07/20 11:51:59;;;;;;;2.80;2.50;;;12.00;99.90;;;;;;5053902;28;20609;-74
2022/07/20 11:54:33;;;;;;;6.05;3.58;;;11.90;99.90;;;;;;5053605;28;20197;-73
2022/07/20 11:57:05;;;;;;;5.47;3.53;;;12.00;99.90;;;;;;5053785;28;20216;-77
2022/07/20 11:59:45;;;;;;;6.88;3.70;;;12.00;99.90;;;;;;5052734;28;20194;-73
2022/07/20 12:02:16;;;;;;;6.53;3.60;;;12.00;99.90;;;;;;5053831;28;20189;-72
2022/07/20 12:04:47;;;;;;;3.75;3.10;;;12.00;99.90;;;;;;5054048;28;20205;-72
2022/07/20 12:10:20;;;;;;;4.65;3.35;;;12.00;99.90;;;;;;5052305;28;20568;-74
2022/07/20 12:13:05;;;;;;;5.60;2.85;;;12.00;99.90;;;;;;5053424;28;20196;-75
2022/07/20 12:15:38;;;;;;;5.38;3.15;;;12.00;99.90;;;;;;5053637;28;20659;-75
2022/07/20 12:18:09;;;;;;;5.13;2.78;;;12.00;99.90;;;;;;5053283;28;20209;-73
2022/07/20 12:20:40;;;;;;;4.40;2.75;;;12.00;99.90;;;;;;5053149;28;20201;-73
2022/07/20 12:23:10;;;;;;;3.80;2.50;;;12.10;99.90;;;;;;5042688;28;20553;-73
2022/07/20 12:25:43;;;;;;;3.50;2.67;;;12.00;99.90;;;;;;5053787;28;20208;-73
2022/07/20 12:28:14;;;;;;;5.15;2.67;;;12.10;99.90;;;;;;5053420;28;20198;-74
2022/07/20 12:30:48;;;;;;;5.68;3.28;;;12.00;99.90;;;;;;5049844;28;20566;-72
2022/07/20 12:33:19;;;;;;;8.00;3.63;;;12.00;99.90;;;;;;5052263;28;20307;-74
2022/07/20 12:35:50;;;;;;;5.05;3.10;;;12.10;99.90;;;;;;5053189;28;20233;-75
2022/07/20 12:38:21;;;;;;;5.38;3.65;;;12.10;99.90;;;;;;5053441;28;20214;-73
2022/07/20 12:40:52;;;;;;;6.47;3.78;;;12.10;99.90;;;;;;5053194;28;20186;-73
2022/07/20 12:43:33;;;;;;;6.88;4.07;;;12.00;99.90;;;;;;5053338;28;20575;-72
2022/07/20 12:46:07;;;;;;;6.55;3.97;;;12.00;99.90;;;;;;5053350;28;20594;-72
2022/07/20 12:48:39;;;;;;;5.57;3.53;;;12.00;99.90;;;;;;5052798;28;20653;-73
2022/07/20 12:51:10;;;;;;;8.55;4.10;;;12.00;99.90;;;;;;5046507;28;20689;-75
2022/07/20 12:53:42;;;;;;;8.23;4.15;;;12.00;99.90;;;;;;5052930;28;20197;-74
2022/07/20 12:56:13;;;;;;;4.97;3.72;;;12.00;99.90;;;;;;5052403;28;20190;-73
2022/07/20 12:58:44;;;;;;;7.15;4.32;;;12.00;99.90;;;;;;5052794;28;20228;-72
2022/07/20 13:01:17;;;;;;;8.52;4.50;;;12.00;99.90;;;;;;5042626;28;20190;-74
2022/07/20 13:03:48;;;;;;;5.50;4.07;;;12.00;99.90;;;;;;5052677;28;20772;-71
2022/07/20 13:06:19;;;;;;;5.63;4.15;;;12.00;99.90;;;;;;5052281;28;20276;-73
2022/07/20 13:08:50;;;;;;;5.55;3.85;;;12.00;99.90;;;;;;5052777;28;20825;-74
2022/07/20 13:11:20;;;;;;;7.40;3.83;;;12.00;99.90;;;;;;5052399;28;20198;-73
2022/07/20 13:13:51;;;;;;;6.47;3.50;;;11.90;99.90;;;;;;5052595;28;20189;-74
2022/07/20 13:16:24;;;;;;;6.75;4.10;;;11.90;99.90;;;;;;5052199;28;20205;-72